sensor_id;sensor_type;location;lat;lon;timestamp;P1;durP1;ratioP1;P2;durP2;ratioP2
75191;SDS011;63771;52.580;9.734;2023-05-23T00:01:16;13.43;;;11.97;;
75191;SDS011;63771;52.580;9.734;2023-05-23T00:03:42;11.80;;;10.60;;
75191;SDS011;63771;52.580;9.734;2023-05-23T00:06:08;12.15;;;10.98;;
75191;SDS011;63771;52.580;9.734;2023-05-23T00:08:34;11.50;;;10.40;;
75191;SDS011;63771;52.580;9.734;2023-05-23T00:10:59;12.80;;;11.32;;
75191;SDS011;63771;52.580;9.734;2023-05-23T00:13:24;16.03;;;12.13;;
75191;SDS011;63771;52.580;9.734;2023-05-23T00:15:50;17.35;;;13.18;;
75191;SDS011;63771;52.580;9.734;2023-05-23T00:18:16;15.68;;;12.57;;
75191;SDS011;63771;52.580;9.734;2023-05-23T00:20:41;16.67;;;14.05;;
75191;SDS011;63771;52.580;9.734;2023-05-23T00:23:07;17.08;;;13.75;;
75191;SDS011;63771;52.580;9.734;2023-05-23T00:25:34;18.75;;;13.48;;
75191;SDS011;63771;52.580;9.734;2023-05-23T00:28:00;18.40;;;13.77;;
75191;SDS011;63771;52.580;9.734;2023-05-23T00:30:29;15.73;;;13.05;;
75191;SDS011;63771;52.580;9.734;2023-05-23T00:32:55;16.50;;;14.20;;
75191;SDS011;63771;52.580;9.734;2023-05-23T00:35:21;19.23;;;13.57;;
75191;SDS011;63771;52.580;9.734;2023-05-23T00:37:47;16.95;;;13.40;;
75191;SDS011;63771;52.580;9.734;2023-05-23T00:40:14;17.50;;;13.20;;
75191;SDS011;63771;52.580;9.734;2023-05-23T00:42:39;16.60;;;14.10;;
75191;SDS011;63771;52.580;9.734;2023-05-23T00:45:05;17.30;;;13.75;;
75191;SDS011;63771;52.580;9.734;2023-05-23T00:47:31;18.52;;;14.52;;
75191;SDS011;63771;52.580;9.734;2023-05-23T00:49:57;17.35;;;13.60;;
75191;SDS011;63771;52.580;9.734;2023-05-23T00:52:22;18.80;;;14.18;;
75191;SDS011;63771;52.580;9.734;2023-05-23T00:54:48;21.85;;;16.80;;
75191;SDS011;63771;52.580;9.734;2023-05-23T00:57:13;18.00;;;15.63;;
75191;SDS011;63771;52.580;9.734;2023-05-23T00:59:39;20.35;;;15.77;;
75191;SDS011;63771;52.580;9.734;2023-05-23T01:02:05;24.05;;;16.92;;
75191;SDS011;63771;52.580;9.734;2023-05-23T01:04:30;24.00;;;18.33;;
75191;SDS011;63771;52.580;9.734;2023-05-23T01:06:58;28.33;;;20.65;;
75191;SDS011;63771;52.580;9.734;2023-05-23T01:09:25;29.73;;;20.83;;
75191;SDS011;63771;52.580;9.734;2023-05-23T01:17:38;30.90;;;20.45;;
75191;SDS011;63771;52.580;9.734;2023-05-23T01:20:15;33.58;;;23.55;;
75191;SDS011;63771;52.580;9.734;2023-05-23T01:25:22;28.83;;;20.95;;
75191;SDS011;63771;52.580;9.734;2023-05-23T01:28:00;29.65;;;21.58;;
75191;SDS011;63771;52.580;9.734;2023-05-23T01:30:29;28.83;;;21.73;;
75191;SDS011;63771;52.580;9.734;2023-05-23T01:32:57;31.95;;;23.50;;
75191;SDS011;63771;52.580;9.734;2023-05-23T01:35:25;27.17;;;18.75;;
75191;SDS011;63771;52.580;9.734;2023-05-23T01:37:54;28.85;;;20.40;;
75191;SDS011;63771;52.580;9.734;2023-05-23T01:40:20;24.10;;;18.42;;
75191;SDS011;63771;52.580;9.734;2023-05-23T01:42:47;26.05;;;18.65;;
75191;SDS011;63771;52.580;9.734;2023-05-23T01:45:13;25.67;;;20.48;;
75191;SDS011;63771;52.580;9.734;2023-05-23T01:47:40;28.85;;;18.33;;
75191;SDS011;63771;52.580;9.734;2023-05-23T01:50:07;24.52;;;18.73;;
75191;SDS011;63771;52.580;9.734;2023-05-23T01:52:34;22.58;;;17.13;;
75191;SDS011;63771;52.580;9.734;2023-05-23T01:54:59;20.98;;;15.73;;
75191;SDS011;63771;52.580;9.734;2023-05-23T01:57:26;19.65;;;14.73;;
75191;SDS011;63771;52.580;9.734;2023-05-23T01:59:54;17.90;;;14.20;;
75191;SDS011;63771;52.580;9.734;2023-05-23T02:02:20;19.17;;;13.90;;
75191;SDS011;63771;52.580;9.734;2023-05-23T02:04:45;18.67;;;13.25;;
75191;SDS011;63771;52.580;9.734;2023-05-23T02:07:11;19.67;;;13.67;;
75191;SDS011;63771;52.580;9.734;2023-05-23T02:09:36;18.33;;;13.68;;
75191;SDS011;63771;52.580;9.734;2023-05-23T02:12:01;19.35;;;13.90;;
75191;SDS011;63771;52.580;9.734;2023-05-23T02:14:27;18.88;;;13.90;;
75191;SDS011;63771;52.580;9.734;2023-05-23T02:16:53;17.27;;;12.03;;
75191;SDS011;63771;52.580;9.734;2023-05-23T02:19:18;16.58;;;12.13;;
75191;SDS011;63771;52.580;9.734;2023-05-23T02:21:44;15.63;;;12.50;;
75191;SDS011;63771;52.580;9.734;2023-05-23T02:24:09;17.40;;;13.38;;
75191;SDS011;63771;52.580;9.734;2023-05-23T02:26:35;19.77;;;13.25;;
75191;SDS011;63771;52.580;9.734;2023-05-23T02:29:00;16.80;;;13.65;;
75191;SDS011;63771;52.580;9.734;2023-05-23T02:31:26;19.50;;;13.63;;
75191;SDS011;63771;52.580;9.734;2023-05-23T02:33:51;19.38;;;13.65;;
75191;SDS011;63771;52.580;9.734;2023-05-23T02:36:17;16.13;;;13.93;;
75191;SDS011;63771;52.580;9.734;2023-05-23T02:38:43;18.05;;;13.15;;
75191;SDS011;63771;52.580;9.734;2023-05-23T02:41:08;18.75;;;12.88;;
75191;SDS011;63771;52.580;9.734;2023-05-23T02:43:33;20.33;;;14.20;;
75191;SDS011;63771;52.580;9.734;2023-05-23T02:45:59;18.02;;;13.10;;
75191;SDS011;63771;52.580;9.734;2023-05-23T02:48:24;19.77;;;11.90;;
75191;SDS011;63771;52.580;9.734;2023-05-23T02:50:50;16.30;;;12.03;;
75191;SDS011;63771;52.580;9.734;2023-05-23T02:53:15;17.40;;;12.43;;
75191;SDS011;63771;52.580;9.734;2023-05-23T02:55:40;14.90;;;11.57;;
75191;SDS011;63771;52.580;9.734;2023-05-23T02:58:06;15.48;;;13.50;;
75191;SDS011;63771;52.580;9.734;2023-05-23T03:00:32;15.43;;;11.73;;
75191;SDS011;63771;52.580;9.734;2023-05-23T03:02:58;14.48;;;11.48;;
75191;SDS011;63771;52.580;9.734;2023-05-23T03:05:23;16.93;;;11.93;;
75191;SDS011;63771;52.580;9.734;2023-05-23T03:07:49;13.47;;;11.10;;
75191;SDS011;63771;52.580;9.734;2023-05-23T03:10:16;16.33;;;12.30;;
75191;SDS011;63771;52.580;9.734;2023-05-23T03:12:41;18.15;;;12.40;;
75191;SDS011;63771;52.580;9.734;2023-05-23T03:15:07;15.52;;;10.63;;
75191;SDS011;63771;52.580;9.734;2023-05-23T03:17:33;17.17;;;11.18;;
75191;SDS011;63771;52.580;9.734;2023-05-23T03:19:59;15.47;;;11.00;;
75191;SDS011;63771;52.580;9.734;2023-05-23T03:22:24;16.17;;;11.50;;
75191;SDS011;63771;52.580;9.734;2023-05-23T03:24:49;14.70;;;11.50;;
75191;SDS011;63771;52.580;9.734;2023-05-23T03:27:15;18.47;;;11.93;;
75191;SDS011;63771;52.580;9.734;2023-05-23T03:29:40;18.70;;;13.10;;
75191;SDS011;63771;52.580;9.734;2023-05-23T03:32:05;14.30;;;12.27;;
75191;SDS011;63771;52.580;9.734;2023-05-23T03:34:31;17.85;;;13.65;;
75191;SDS011;63771;52.580;9.734;2023-05-23T03:36:57;16.02;;;12.73;;
75191;SDS011;63771;52.580;9.734;2023-05-23T03:39:23;19.13;;;12.65;;
75191;SDS011;63771;52.580;9.734;2023-05-23T03:41:49;17.23;;;12.55;;
75191;SDS011;63771;52.580;9.734;2023-05-23T03:44:14;18.13;;;13.82;;
75191;SDS011;63771;52.580;9.734;2023-05-23T03:46:40;15.33;;;12.60;;
75191;SDS011;63771;52.580;9.734;2023-05-23T03:49:05;16.15;;;13.25;;
75191;SDS011;63771;52.580;9.734;2023-05-23T03:51:30;19.75;;;12.95;;
75191;SDS011;63771;52.580;9.734;2023-05-23T03:53:56;21.90;;;14.90;;
75191;SDS011;63771;52.580;9.734;2023-05-23T03:56:21;20.53;;;15.13;;
75191;SDS011;63771;52.580;9.734;2023-05-23T03:58:47;17.90;;;13.93;;
75191;SDS011;63771;52.580;9.734;2023-05-23T04:01:12;20.92;;;14.65;;
75191;SDS011;63771;52.580;9.734;2023-05-23T04:03:38;19.33;;;15.20;;
75191;SDS011;63771;52.580;9.734;2023-05-23T04:06:03;16.53;;;12.60;;
75191;SDS011;63771;52.580;9.734;2023-05-23T04:08:28;19.38;;;13.10;;
75191;SDS011;63771;52.580;9.734;2023-05-23T04:10:57;17.67;;;14.05;;
75191;SDS011;63771;52.580;9.734;2023-05-23T04:13:23;17.02;;;13.02;;
75191;SDS011;63771;52.580;9.734;2023-05-23T04:15:50;17.88;;;14.15;;
75191;SDS011;63771;52.580;9.734;2023-05-23T04:18:16;17.80;;;13.57;;
75191;SDS011;63771;52.580;9.734;2023-05-23T04:20:41;17.05;;;13.18;;
75191;SDS011;63771;52.580;9.734;2023-05-23T04:23:07;18.37;;;13.07;;
75191;SDS011;63771;52.580;9.734;2023-05-23T04:25:32;16.63;;;12.25;;
75191;SDS011;63771;52.580;9.734;2023-05-23T04:27:58;20.45;;;12.90;;
75191;SDS011;63771;52.580;9.734;2023-05-23T04:30:24;17.75;;;12.68;;
75191;SDS011;63771;52.580;9.734;2023-05-23T04:32:49;18.90;;;12.80;;
75191;SDS011;63771;52.580;9.734;2023-05-23T04:35:14;18.17;;;13.25;;
75191;SDS011;63771;52.580;9.734;2023-05-23T04:37:40;17.33;;;13.07;;
75191;SDS011;63771;52.580;9.734;2023-05-23T04:40:06;17.45;;;12.70;;
75191;SDS011;63771;52.580;9.734;2023-05-23T04:42:32;22.52;;;12.57;;
75191;SDS011;63771;52.580;9.734;2023-05-23T04:44:58;17.75;;;12.70;;
75191;SDS011;63771;52.580;9.734;2023-05-23T04:47:23;16.50;;;11.98;;
75191;SDS011;63771;52.580;9.734;2023-05-23T04:49:53;19.17;;;12.52;;
75191;SDS011;63771;52.580;9.734;2023-05-23T04:52:21;19.00;;;12.95;;
75191;SDS011;63771;52.580;9.734;2023-05-23T04:54:47;17.98;;;12.85;;
75191;SDS011;63771;52.580;9.734;2023-05-23T04:57:12;16.95;;;11.95;;
75191;SDS011;63771;52.580;9.734;2023-05-23T04:59:38;19.05;;;12.73;;
75191;SDS011;63771;52.580;9.734;2023-05-23T05:02:03;17.70;;;12.00;;
75191;SDS011;63771;52.580;9.734;2023-05-23T05:04:29;15.40;;;11.07;;
75191;SDS011;63771;52.580;9.734;2023-05-23T05:06:55;22.27;;;14.07;;
75191;SDS011;63771;52.580;9.734;2023-05-23T05:09:21;20.70;;;13.23;;
75191;SDS011;63771;52.580;9.734;2023-05-23T05:11:46;18.80;;;12.55;;
75191;SDS011;63771;52.580;9.734;2023-05-23T05:14:12;19.63;;;13.80;;
75191;SDS011;63771;52.580;9.734;2023-05-23T05:16:37;18.88;;;11.68;;
75191;SDS011;63771;52.580;9.734;2023-05-23T05:19:03;19.08;;;12.48;;
75191;SDS011;63771;52.580;9.734;2023-05-23T05:21:28;19.83;;;13.02;;
75191;SDS011;63771;52.580;9.734;2023-05-23T05:23:54;18.25;;;13.10;;
75191;SDS011;63771;52.580;9.734;2023-05-23T05:26:19;20.17;;;14.02;;
75191;SDS011;63771;52.580;9.734;2023-05-23T05:28:44;20.95;;;12.68;;
75191;SDS011;63771;52.580;9.734;2023-05-23T05:31:10;17.33;;;11.63;;
75191;SDS011;63771;52.580;9.734;2023-05-23T05:33:39;16.88;;;11.70;;
75191;SDS011;63771;52.580;9.734;2023-05-23T05:36:06;17.90;;;12.38;;
75191;SDS011;63771;52.580;9.734;2023-05-23T05:38:32;15.50;;;10.27;;
75191;SDS011;63771;52.580;9.734;2023-05-23T05:40:57;16.17;;;10.20;;
75191;SDS011;63771;52.580;9.734;2023-05-23T05:43:23;13.43;;;10.13;;
75191;SDS011;63771;52.580;9.734;2023-05-23T05:45:49;13.80;;;9.88;;
75191;SDS011;63771;52.580;9.734;2023-05-23T05:48:14;15.33;;;11.20;;
75191;SDS011;63771;52.580;9.734;2023-05-23T05:50:40;12.60;;;10.20;;
75191;SDS011;63771;52.580;9.734;2023-05-23T05:53:09;12.57;;;11.05;;
75191;SDS011;63771;52.580;9.734;2023-05-23T05:55:34;13.73;;;9.37;;
75191;SDS011;63771;52.580;9.734;2023-05-23T05:57:59;11.07;;;9.30;;
75191;SDS011;63771;52.580;9.734;2023-05-23T06:00:25;12.87;;;9.77;;
75191;SDS011;63771;52.580;9.734;2023-05-23T06:02:50;12.32;;;9.35;;
75191;SDS011;63771;52.580;9.734;2023-05-23T06:05:16;11.07;;;9.35;;
75191;SDS011;63771;52.580;9.734;2023-05-23T06:07:42;14.88;;;11.15;;
75191;SDS011;63771;52.580;9.734;2023-05-23T06:10:08;13.38;;;10.00;;
75191;SDS011;63771;52.580;9.734;2023-05-23T06:12:36;12.38;;;10.85;;
75191;SDS011;63771;52.580;9.734;2023-05-23T06:15:02;14.75;;;11.40;;
75191;SDS011;63771;52.580;9.734;2023-05-23T06:17:27;13.65;;;10.35;;
75191;SDS011;63771;52.580;9.734;2023-05-23T06:19:53;15.07;;;10.85;;
75191;SDS011;63771;52.580;9.734;2023-05-23T06:22:18;12.48;;;10.77;;
75191;SDS011;63771;52.580;9.734;2023-05-23T06:24:43;12.10;;;10.43;;
75191;SDS011;63771;52.580;9.734;2023-05-23T06:27:08;11.40;;;10.00;;
75191;SDS011;63771;52.580;9.734;2023-05-23T06:29:34;14.10;;;9.90;;
75191;SDS011;63771;52.580;9.734;2023-05-23T06:32:02;12.75;;;10.48;;
75191;SDS011;63771;52.580;9.734;2023-05-23T06:34:27;15.23;;;11.38;;
75191;SDS011;63771;52.580;9.734;2023-05-23T06:36:53;15.00;;;11.07;;
75191;SDS011;63771;52.580;9.734;2023-05-23T06:39:19;14.20;;;11.07;;
75191;SDS011;63771;52.580;9.734;2023-05-23T06:41:44;13.27;;;10.53;;
75191;SDS011;63771;52.580;9.734;2023-05-23T06:44:10;15.48;;;8.95;;
75191;SDS011;63771;52.580;9.734;2023-05-23T06:46:35;11.23;;;8.83;;
75191;SDS011;63771;52.580;9.734;2023-05-23T06:49:01;11.53;;;8.97;;
75191;SDS011;63771;52.580;9.734;2023-05-23T06:51:26;11.37;;;9.10;;
75191;SDS011;63771;52.580;9.734;2023-05-23T06:53:51;12.77;;;8.23;;
75191;SDS011;63771;52.580;9.734;2023-05-23T06:56:17;13.47;;;8.90;;
75191;SDS011;63771;52.580;9.734;2023-05-23T06:58:42;11.53;;;9.50;;
75191;SDS011;63771;52.580;9.734;2023-05-23T07:01:07;10.48;;;8.15;;
75191;SDS011;63771;52.580;9.734;2023-05-23T07:03:34;8.45;;;7.25;;
75191;SDS011;63771;52.580;9.734;2023-05-23T07:06:00;8.43;;;7.63;;
75191;SDS011;63771;52.580;9.734;2023-05-23T07:08:25;8.87;;;7.97;;
75191;SDS011;63771;52.580;9.734;2023-05-23T07:10:50;9.50;;;8.60;;
75191;SDS011;63771;52.580;9.734;2023-05-23T07:13:16;10.32;;;8.13;;
75191;SDS011;63771;52.580;9.734;2023-05-23T07:15:41;8.67;;;6.83;;
75191;SDS011;63771;52.580;9.734;2023-05-23T07:18:06;7.27;;;6.57;;
75191;SDS011;63771;52.580;9.734;2023-05-23T07:20:32;8.53;;;7.67;;
75191;SDS011;63771;52.580;9.734;2023-05-23T07:22:58;7.43;;;6.70;;
75191;SDS011;63771;52.580;9.734;2023-05-23T07:25:24;7.78;;;6.97;;
75191;SDS011;63771;52.580;9.734;2023-05-23T07:27:49;8.65;;;7.75;;
75191;SDS011;63771;52.580;9.734;2023-05-23T07:30:16;7.72;;;6.95;;
75191;SDS011;63771;52.580;9.734;2023-05-23T07:32:41;11.37;;;8.90;;
75191;SDS011;63771;52.580;9.734;2023-05-23T07:35:07;14.17;;;9.93;;
75191;SDS011;63771;52.580;9.734;2023-05-23T07:37:32;11.77;;;10.57;;
75191;SDS011;63771;52.580;9.734;2023-05-23T07:39:57;15.10;;;11.77;;
75191;SDS011;63771;52.580;9.734;2023-05-23T07:42:23;18.77;;;12.13;;
75191;SDS011;63771;52.580;9.734;2023-05-23T07:44:48;14.03;;;12.50;;
75191;SDS011;63771;52.580;9.734;2023-05-23T07:47:13;19.87;;;11.43;;
75191;SDS011;63771;52.580;9.734;2023-05-23T07:49:39;20.03;;;13.03;;
75191;SDS011;63771;52.580;9.734;2023-05-23T07:52:04;17.50;;;12.40;;
75191;SDS011;63771;52.580;9.734;2023-05-23T07:54:30;16.80;;;13.90;;
75191;SDS011;63771;52.580;9.734;2023-05-23T07:56:56;16.67;;;12.48;;
75191;SDS011;63771;52.580;9.734;2023-05-23T07:59:21;18.33;;;14.18;;
75191;SDS011;63771;52.580;9.734;2023-05-23T08:01:47;19.45;;;12.27;;
75191;SDS011;63771;52.580;9.734;2023-05-23T08:04:14;16.38;;;12.77;;
75191;SDS011;63771;52.580;9.734;2023-05-23T08:06:40;14.57;;;11.77;;
75191;SDS011;63771;52.580;9.734;2023-05-23T08:09:05;13.65;;;11.50;;
75191;SDS011;63771;52.580;9.734;2023-05-23T08:11:31;13.95;;;11.23;;
75191;SDS011;63771;52.580;9.734;2023-05-23T08:13:56;14.83;;;10.93;;
75191;SDS011;63771;52.580;9.734;2023-05-23T08:16:23;17.20;;;10.75;;
75191;SDS011;63771;52.580;9.734;2023-05-23T08:18:49;14.23;;;10.03;;
75191;SDS011;63771;52.580;9.734;2023-05-23T08:21:14;14.57;;;9.83;;
75191;SDS011;63771;52.580;9.734;2023-05-23T08:23:39;12.20;;;9.32;;
75191;SDS011;63771;52.580;9.734;2023-05-23T08:26:05;13.83;;;10.13;;
75191;SDS011;63771;52.580;9.734;2023-05-23T08:28:31;14.30;;;10.55;;
75191;SDS011;63771;52.580;9.734;2023-05-23T08:30:58;18.80;;;10.73;;
75191;SDS011;63771;52.580;9.734;2023-05-23T08:33:24;17.23;;;9.90;;
75191;SDS011;63771;52.580;9.734;2023-05-23T08:35:50;9.15;;;7.97;;
75191;SDS011;63771;52.580;9.734;2023-05-23T08:38:15;12.88;;;9.15;;
75191;SDS011;63771;52.580;9.734;2023-05-23T08:40:42;12.05;;;7.43;;
75191;SDS011;63771;52.580;9.734;2023-05-23T08:43:16;13.80;;;8.95;;
75191;SDS011;63771;52.580;9.734;2023-05-23T08:45:42;13.57;;;7.38;;
75191;SDS011;63771;52.580;9.734;2023-05-23T08:48:08;9.30;;;7.30;;
75191;SDS011;63771;52.580;9.734;2023-05-23T08:50:37;13.80;;;7.95;;
75191;SDS011;63771;52.580;9.734;2023-05-23T08:53:04;11.20;;;7.82;;
75191;SDS011;63771;52.580;9.734;2023-05-23T08:55:32;10.52;;;7.15;;
75191;SDS011;63771;52.580;9.734;2023-05-23T08:57:58;12.70;;;8.30;;
75191;SDS011;63771;52.580;9.734;2023-05-23T09:00:24;13.40;;;8.00;;
75191;SDS011;63771;52.580;9.734;2023-05-23T09:02:51;7.70;;;6.55;;
75191;SDS011;63771;52.580;9.734;2023-05-23T09:05:18;10.40;;;7.30;;
75191;SDS011;63771;52.580;9.734;2023-05-23T09:07:44;7.63;;;6.65;;
75191;SDS011;63771;52.580;9.734;2023-05-23T09:10:12;9.52;;;6.40;;
75191;SDS011;63771;52.580;9.734;2023-05-23T09:12:38;8.35;;;5.38;;
75191;SDS011;63771;52.580;9.734;2023-05-23T09:15:04;7.18;;;4.90;;
75191;SDS011;63771;52.580;9.734;2023-05-23T09:17:31;11.10;;;5.35;;
75191;SDS011;63771;52.580;9.734;2023-05-23T09:19:57;12.40;;;5.90;;
75191;SDS011;63771;52.580;9.734;2023-05-23T09:22:26;11.93;;;5.00;;
75191;SDS011;63771;52.580;9.734;2023-05-23T09:24:53;7.22;;;4.20;;
75191;SDS011;63771;52.580;9.734;2023-05-23T09:27:19;14.30;;;5.28;;
75191;SDS011;63771;52.580;9.734;2023-05-23T09:29:45;9.50;;;5.43;;
75191;SDS011;63771;52.580;9.734;2023-05-23T09:32:18;11.20;;;4.95;;
75191;SDS011;63771;52.580;9.734;2023-05-23T09:34:57;8.60;;;4.75;;
75191;SDS011;63771;52.580;9.734;2023-05-23T09:37:28;6.90;;;4.13;;
75191;SDS011;63771;52.580;9.734;2023-05-23T09:40:10;7.35;;;5.00;;
75191;SDS011;63771;52.580;9.734;2023-05-23T09:42:44;7.50;;;4.30;;
75191;SDS011;63771;52.580;9.734;2023-05-23T09:45:11;7.70;;;4.75;;
75191;SDS011;63771;52.580;9.734;2023-05-23T09:47:37;9.52;;;4.57;;
75191;SDS011;63771;52.580;9.734;2023-05-23T09:50:02;10.30;;;4.78;;
75191;SDS011;63771;52.580;9.734;2023-05-23T09:52:37;5.43;;;4.30;;
75191;SDS011;63771;52.580;9.734;2023-05-23T09:55:02;8.50;;;4.75;;
75191;SDS011;63771;52.580;9.734;2023-05-23T09:57:28;6.53;;;3.92;;
75191;SDS011;63771;52.580;9.734;2023-05-23T09:59:56;11.82;;;4.35;;
75191;SDS011;63771;52.580;9.734;2023-05-23T10:02:36;5.80;;;3.70;;
75191;SDS011;63771;52.580;9.734;2023-05-23T10:08:00;3.22;;;2.78;;
75191;SDS011;63771;52.580;9.734;2023-05-23T10:10:28;4.10;;;2.72;;
75191;SDS011;63771;52.580;9.734;2023-05-23T10:12:57;4.00;;;2.83;;
75191;SDS011;63771;52.580;9.734;2023-05-23T10:15:27;3.15;;;2.85;;
75191;SDS011;63771;52.580;9.734;2023-05-23T10:20:37;7.35;;;3.45;;
75191;SDS011;63771;52.580;9.734;2023-05-23T10:23:07;3.72;;;2.25;;
75191;SDS011;63771;52.580;9.734;2023-05-23T10:25:32;5.63;;;2.90;;
75191;SDS011;63771;52.580;9.734;2023-05-23T10:28:00;5.22;;;2.70;;
75191;SDS011;63771;52.580;9.734;2023-05-23T10:30:26;5.68;;;2.38;;
75191;SDS011;63771;52.580;9.734;2023-05-23T10:32:55;3.45;;;1.98;;
75191;SDS011;63771;52.580;9.734;2023-05-23T10:36:06;4.50;;;2.60;;
75191;SDS011;63771;52.580;9.734;2023-05-23T10:38:35;4.13;;;3.08;;
75191;SDS011;63771;52.580;9.734;2023-05-23T10:41:12;7.82;;;3.05;;
75191;SDS011;63771;52.580;9.734;2023-05-23T10:44:01;7.28;;;3.90;;
75191;SDS011;63771;52.580;9.734;2023-05-23T10:46:52;8.85;;;3.53;;
75191;SDS011;63771;52.580;9.734;2023-05-23T10:52:08;6.85;;;3.78;;
75191;SDS011;63771;52.580;9.734;2023-05-23T10:54:36;7.43;;;3.30;;
75191;SDS011;63771;52.580;9.734;2023-05-23T10:57:10;9.10;;;3.35;;
75191;SDS011;63771;52.580;9.734;2023-05-23T10:59:39;11.75;;;3.65;;
75191;SDS011;63771;52.580;9.734;2023-05-23T11:02:09;7.97;;;4.18;;
75191;SDS011;63771;52.580;9.734;2023-05-23T11:04:38;10.00;;;4.13;;
75191;SDS011;63771;52.580;9.734;2023-05-23T11:07:03;9.30;;;3.92;;
75191;SDS011;63771;52.580;9.734;2023-05-23T11:09:28;7.43;;;3.33;;
75191;SDS011;63771;52.580;9.734;2023-05-23T11:11:58;8.07;;;4.18;;
75191;SDS011;63771;52.580;9.734;2023-05-23T11:17:29;6.18;;;3.83;;
75191;SDS011;63771;52.580;9.734;2023-05-23T11:19:57;9.18;;;3.97;;
75191;SDS011;63771;52.580;9.734;2023-05-23T11:22:30;11.32;;;4.68;;
75191;SDS011;63771;52.580;9.734;2023-05-23T11:24:56;18.58;;;4.50;;
75191;SDS011;63771;52.580;9.734;2023-05-23T11:27:26;6.70;;;3.72;;
75191;SDS011;63771;52.580;9.734;2023-05-23T11:32:33;9.82;;;4.15;;
75191;SDS011;63771;52.580;9.734;2023-05-23T11:35:01;13.77;;;4.38;;
75191;SDS011;63771;52.580;9.734;2023-05-23T11:37:28;10.15;;;4.45;;
75191;SDS011;63771;52.580;9.734;2023-05-23T11:39:54;8.15;;;4.13;;
75191;SDS011;63771;52.580;9.734;2023-05-23T11:42:21;9.57;;;4.68;;
75191;SDS011;63771;52.580;9.734;2023-05-23T11:44:49;9.02;;;5.35;;
75191;SDS011;63771;52.580;9.734;2023-05-23T11:47:16;14.88;;;5.50;;
75191;SDS011;63771;52.580;9.734;2023-05-23T11:49:43;9.73;;;3.33;;
75191;SDS011;63771;52.580;9.734;2023-05-23T11:52:13;8.80;;;3.72;;
75191;SDS011;63771;52.580;9.734;2023-05-23T11:54:39;8.48;;;4.68;;
75191;SDS011;63771;52.580;9.734;2023-05-23T11:57:06;15.65;;;4.80;;
75191;SDS011;63771;52.580;9.734;2023-05-23T11:59:31;12.93;;;4.00;;
75191;SDS011;63771;52.580;9.734;2023-05-23T12:01:57;10.38;;;3.75;;
75191;SDS011;63771;52.580;9.734;2023-05-23T12:04:24;9.55;;;3.80;;
75191;SDS011;63771;52.580;9.734;2023-05-23T12:06:50;10.90;;;3.17;;
75191;SDS011;63771;52.580;9.734;2023-05-23T12:09:16;7.97;;;3.07;;
75191;SDS011;63771;52.580;9.734;2023-05-23T12:11:41;15.23;;;4.97;;
75191;SDS011;63771;52.580;9.734;2023-05-23T12:14:08;7.70;;;3.55;;
75191;SDS011;63771;52.580;9.734;2023-05-23T12:16:38;9.57;;;3.08;;
75191;SDS011;63771;52.580;9.734;2023-05-23T12:19:04;10.70;;;2.90;;
75191;SDS011;63771;52.580;9.734;2023-05-23T12:21:43;7.93;;;3.50;;
75191;SDS011;63771;52.580;9.734;2023-05-23T12:24:19;8.70;;;3.25;;
75191;SDS011;63771;52.580;9.734;2023-05-23T12:26:52;8.13;;;4.03;;
75191;SDS011;63771;52.580;9.734;2023-05-23T12:29:19;10.52;;;3.10;;
75191;SDS011;63771;52.580;9.734;2023-05-23T12:32:02;13.30;;;3.10;;
75191;SDS011;63771;52.580;9.734;2023-05-23T12:34:29;14.45;;;3.75;;
75191;SDS011;63771;52.580;9.734;2023-05-23T12:36:55;9.82;;;3.17;;
75191;SDS011;63771;52.580;9.734;2023-05-23T12:39:25;7.93;;;3.58;;
75191;SDS011;63771;52.580;9.734;2023-05-23T12:41:52;14.20;;;3.70;;
75191;SDS011;63771;52.580;9.734;2023-05-23T12:44:20;14.40;;;4.80;;
75191;SDS011;63771;52.580;9.734;2023-05-23T12:46:45;8.45;;;3.70;;
75191;SDS011;63771;52.580;9.734;2023-05-23T12:49:12;7.18;;;2.90;;
75191;SDS011;63771;52.580;9.734;2023-05-23T12:51:37;15.65;;;4.65;;
75191;SDS011;63771;52.580;9.734;2023-05-23T12:54:03;6.72;;;3.47;;
75191;SDS011;63771;52.580;9.734;2023-05-23T12:56:28;8.82;;;2.90;;
75191;SDS011;63771;52.580;9.734;2023-05-23T12:58:53;6.40;;;2.95;;
75191;SDS011;63771;52.580;9.734;2023-05-23T13:01:19;8.77;;;3.17;;
75191;SDS011;63771;52.580;9.734;2023-05-23T13:03:45;8.65;;;2.92;;
75191;SDS011;63771;52.580;9.734;2023-05-23T13:06:10;6.63;;;3.00;;
75191;SDS011;63771;52.580;9.734;2023-05-23T13:08:36;9.15;;;3.40;;
75191;SDS011;63771;52.580;9.734;2023-05-23T13:11:01;12.57;;;3.90;;
75191;SDS011;63771;52.580;9.734;2023-05-23T13:13:27;5.68;;;3.45;;
75191;SDS011;63771;52.580;9.734;2023-05-23T13:15:52;12.20;;;5.45;;
75191;SDS011;63771;52.580;9.734;2023-05-23T13:18:18;11.13;;;3.50;;
75191;SDS011;63771;52.580;9.734;2023-05-23T13:20:43;10.70;;;3.35;;
75191;SDS011;63771;52.580;9.734;2023-05-23T13:23:09;8.98;;;3.05;;
75191;SDS011;63771;52.580;9.734;2023-05-23T13:25:34;5.70;;;3.10;;
75191;SDS011;63771;52.580;9.734;2023-05-23T13:28:00;15.63;;;4.18;;
75191;SDS011;63771;52.580;9.734;2023-05-23T13:30:27;7.85;;;3.25;;
75191;SDS011;63771;52.580;9.734;2023-05-23T13:32:52;7.97;;;2.97;;
75191;SDS011;63771;52.580;9.734;2023-05-23T13:35:18;7.55;;;3.40;;
75191;SDS011;63771;52.580;9.734;2023-05-23T13:37:44;10.63;;;3.10;;
75191;SDS011;63771;52.580;9.734;2023-05-23T13:40:15;5.75;;;3.13;;
75191;SDS011;63771;52.580;9.734;2023-05-23T13:42:44;10.43;;;4.30;;
75191;SDS011;63771;52.580;9.734;2023-05-23T13:45:11;9.95;;;3.83;;
75191;SDS011;63771;52.580;9.734;2023-05-23T13:47:36;10.87;;;4.17;;
75191;SDS011;63771;52.580;9.734;2023-05-23T13:50:02;11.67;;;4.23;;
75191;SDS011;63771;52.580;9.734;2023-05-23T13:52:28;12.60;;;3.97;;
75191;SDS011;63771;52.580;9.734;2023-05-23T13:54:54;8.17;;;3.43;;
75191;SDS011;63771;52.580;9.734;2023-05-23T13:57:19;10.90;;;4.13;;
75191;SDS011;63771;52.580;9.734;2023-05-23T13:59:45;11.85;;;5.10;;
75191;SDS011;63771;52.580;9.734;2023-05-23T14:02:10;12.17;;;5.43;;
75191;SDS011;63771;52.580;9.734;2023-05-23T14:04:36;10.33;;;3.23;;
75191;SDS011;63771;52.580;9.734;2023-05-23T14:07:01;9.00;;;3.37;;
75191;SDS011;63771;52.580;9.734;2023-05-23T14:09:27;10.15;;;2.95;;
75191;SDS011;63771;52.580;9.734;2023-05-23T14:11:53;8.95;;;3.83;;
75191;SDS011;63771;52.580;9.734;2023-05-23T14:14:18;10.32;;;3.60;;
75191;SDS011;63771;52.580;9.734;2023-05-23T14:16:44;7.40;;;3.33;;
75191;SDS011;63771;52.580;9.734;2023-05-23T14:19:09;7.47;;;4.07;;
75191;SDS011;63771;52.580;9.734;2023-05-23T14:21:34;9.27;;;3.13;;
75191;SDS011;63771;52.580;9.734;2023-05-23T14:24:00;11.05;;;3.38;;
75191;SDS011;63771;52.580;9.734;2023-05-23T14:26:26;12.55;;;3.33;;
75191;SDS011;63771;52.580;9.734;2023-05-23T14:28:51;5.47;;;3.67;;
75191;SDS011;63771;52.580;9.734;2023-05-23T14:31:17;9.90;;;3.03;;
75191;SDS011;63771;52.580;9.734;2023-05-23T14:33:42;7.07;;;2.70;;
75191;SDS011;63771;52.580;9.734;2023-05-23T14:36:07;9.87;;;3.80;;
75191;SDS011;63771;52.580;9.734;2023-05-23T14:38:33;10.48;;;3.47;;
75191;SDS011;63771;52.580;9.734;2023-05-23T14:40:58;11.03;;;3.20;;
75191;SDS011;63771;52.580;9.734;2023-05-23T14:43:23;10.18;;;2.70;;
75191;SDS011;63771;52.580;9.734;2023-05-23T14:45:49;17.50;;;3.47;;
75191;SDS011;63771;52.580;9.734;2023-05-23T14:48:14;8.98;;;2.40;;
75191;SDS011;63771;52.580;9.734;2023-05-23T14:50:39;7.30;;;2.97;;